sensor_id;sensor_type;location;lat;lon;timestamp;P1;durP1;ratioP1;P2;durP2;ratioP2
21519;SDS011;10921;53.614;9.882;2023-02-01T00:00:30;41.97;;;14.25;;
21519;SDS011;10921;53.614;9.882;2023-02-01T00:02:56;54.83;;;15.73;;
21519;SDS011;10921;53.614;9.882;2023-02-01T00:05:23;55.42;;;15.73;;
21519;SDS011;10921;53.614;9.882;2023-02-01T00:07:49;58.45;;;16.48;;
21519;SDS011;10921;53.614;9.882;2023-02-01T00:10:16;47.83;;;15.13;;
21519;SDS011;10921;53.614;9.882;2023-02-01T00:12:43;49.42;;;15.00;;
21519;SDS011;10921;53.614;9.882;2023-02-01T00:15:10;61.92;;;15.10;;
21519;SDS011;10921;53.614;9.882;2023-02-01T00:17:36;42.20;;;13.50;;
21519;SDS011;10921;53.614;9.882;2023-02-01T00:20:03;41.67;;;13.88;;
21519;SDS011;10921;53.614;9.882;2023-02-01T00:22:30;52.72;;;14.75;;
21519;SDS011;10921;53.614;9.882;2023-02-01T00:24:57;48.75;;;13.65;;
21519;SDS011;10921;53.614;9.882;2023-02-01T00:27:23;44.92;;;14.02;;
21519;SDS011;10921;53.614;9.882;2023-02-01T00:29:49;43.83;;;13.50;;
21519;SDS011;10921;53.614;9.882;2023-02-01T00:32:16;45.45;;;12.27;;
21519;SDS011;10921;53.614;9.882;2023-02-01T00:34:43;47.70;;;12.93;;
21519;SDS011;10921;53.614;9.882;2023-02-01T00:37:09;45.28;;;12.57;;
21519;SDS011;10921;53.614;9.882;2023-02-01T00:39:36;46.47;;;13.63;;
21519;SDS011;10921;53.614;9.882;2023-02-01T00:42:02;57.70;;;15.05;;
21519;SDS011;10921;53.614;9.882;2023-02-01T00:44:29;57.15;;;14.38;;
21519;SDS011;10921;53.614;9.882;2023-02-01T00:46:59;52.58;;;14.82;;
21519;SDS011;10921;53.614;9.882;2023-02-01T00:49:26;49.03;;;14.15;;
21519;SDS011;10921;53.614;9.882;2023-02-01T00:51:54;60.78;;;15.77;;
21519;SDS011;10921;53.614;9.882;2023-02-01T00:54:20;55.08;;;14.55;;
21519;SDS011;10921;53.614;9.882;2023-02-01T00:56:47;61.05;;;15.23;;
21519;SDS011;10921;53.614;9.882;2023-02-01T00:59:13;58.33;;;14.57;;
21519;SDS011;10921;53.614;9.882;2023-02-01T01:01:40;59.47;;;14.82;;
21519;SDS011;10921;53.614;9.882;2023-02-01T01:04:07;59.35;;;15.60;;
21519;SDS011;10921;53.614;9.882;2023-02-01T01:06:33;66.10;;;15.52;;
21519;SDS011;10921;53.614;9.882;2023-02-01T01:09:01;48.47;;;14.27;;
21519;SDS011;10921;53.614;9.882;2023-02-01T01:11:31;53.00;;;15.55;;
21519;SDS011;10921;53.614;9.882;2023-02-01T01:14:00;68.38;;;16.25;;
21519;SDS011;10921;53.614;9.882;2023-02-01T01:16:27;50.83;;;14.57;;
21519;SDS011;10921;53.614;9.882;2023-02-01T01:18:55;52.45;;;14.75;;
21519;SDS011;10921;53.614;9.882;2023-02-01T01:21:22;56.88;;;15.05;;
21519;SDS011;10921;53.614;9.882;2023-02-01T01:23:49;79.45;;;17.50;;
21519;SDS011;10921;53.614;9.882;2023-02-01T01:26:17;60.10;;;16.25;;
21519;SDS011;10921;53.614;9.882;2023-02-01T01:28:45;57.88;;;17.00;;
21519;SDS011;10921;53.614;9.882;2023-02-01T01:31:13;62.35;;;14.95;;
21519;SDS011;10921;53.614;9.882;2023-02-01T01:33:41;48.25;;;13.88;;
21519;SDS011;10921;53.614;9.882;2023-02-01T01:36:10;56.50;;;15.43;;
21519;SDS011;10921;53.614;9.882;2023-02-01T01:38:38;64.40;;;15.35;;
21519;SDS011;10921;53.614;9.882;2023-02-01T01:41:05;66.10;;;15.80;;
21519;SDS011;10921;53.614;9.882;2023-02-01T01:43:52;56.03;;;14.68;;
21519;SDS011;10921;53.614;9.882;2023-02-01T01:46:42;71.60;;;14.73;;
21519;SDS011;10921;53.614;9.882;2023-02-01T01:49:16;58.75;;;16.33;;
21519;SDS011;10921;53.614;9.882;2023-02-01T01:51:51;60.08;;;16.80;;
21519;SDS011;10921;53.614;9.882;2023-02-01T01:56:57;59.35;;;15.77;;
21519;SDS011;10921;53.614;9.882;2023-02-01T01:59:28;46.42;;;14.98;;
21519;SDS011;10921;53.614;9.882;2023-02-01T02:01:57;55.88;;;15.02;;
21519;SDS011;10921;53.614;9.882;2023-02-01T02:04:24;54.00;;;15.15;;
21519;SDS011;10921;53.614;9.882;2023-02-01T02:06:53;57.30;;;16.08;;
21519;SDS011;10921;53.614;9.882;2023-02-01T02:09:24;74.20;;;16.48;;
21519;SDS011;10921;53.614;9.882;2023-02-01T02:11:51;66.35;;;15.15;;
21519;SDS011;10921;53.614;9.882;2023-02-01T02:14:18;61.45;;;16.52;;
21519;SDS011;10921;53.614;9.882;2023-02-01T02:36:23;47.40;;;14.77;;
21519;SDS011;10921;53.614;9.882;2023-02-01T02:38:57;74.85;;;16.45;;
21519;SDS011;10921;53.614;9.882;2023-02-01T02:41:33;65.45;;;17.23;;
21519;SDS011;10921;53.614;9.882;2023-02-01T02:47:20;54.03;;;17.42;;
21519;SDS011;10921;53.614;9.882;2023-02-01T02:49:59;67.68;;;18.38;;
21519;SDS011;10921;53.614;9.882;2023-02-01T02:53:12;61.75;;;18.02;;
21519;SDS011;10921;53.614;9.882;2023-02-01T02:55:58;61.05;;;18.25;;
21519;SDS011;10921;53.614;9.882;2023-02-01T02:58:45;54.53;;;20.65;;
21519;SDS011;10921;53.614;9.882;2023-02-01T03:01:32;66.63;;;25.35;;
21519;SDS011;10921;53.614;9.882;2023-02-01T03:04:18;83.13;;;33.78;;
21519;SDS011;10921;53.614;9.882;2023-02-01T03:06:46;90.97;;;35.35;;
21519;SDS011;10921;53.614;9.882;2023-02-01T03:09:14;90.93;;;35.58;;
21519;SDS011;10921;53.614;9.882;2023-02-01T03:11:46;77.80;;;35.22;;
21519;SDS011;10921;53.614;9.882;2023-02-01T03:14:35;89.78;;;35.53;;
21519;SDS011;10921;53.614;9.882;2023-02-01T03:17:12;85.00;;;34.40;;
21519;SDS011;10921;53.614;9.882;2023-02-01T03:19:43;69.10;;;32.30;;
21519;SDS011;10921;53.614;9.882;2023-02-01T03:22:23;73.28;;;33.40;;
21519;SDS011;10921;53.614;9.882;2023-02-01T03:24:56;72.57;;;32.60;;
21519;SDS011;10921;53.614;9.882;2023-02-01T03:27:32;70.13;;;32.58;;
21519;SDS011;10921;53.614;9.882;2023-02-01T03:30:24;67.03;;;31.52;;
21519;SDS011;10921;53.614;9.882;2023-02-01T03:32:53;54.53;;;30.88;;
21519;SDS011;10921;53.614;9.882;2023-02-01T03:35:44;53.30;;;31.48;;
21519;SDS011;10921;53.614;9.882;2023-02-01T03:41:41;61.03;;;31.30;;
21519;SDS011;10921;53.614;9.882;2023-02-01T03:46:58;48.33;;;29.05;;
21519;SDS011;10921;53.614;9.882;2023-02-01T03:49:31;61.70;;;31.67;;
21519;SDS011;10921;53.614;9.882;2023-02-01T03:52:01;55.00;;;31.90;;
21519;SDS011;10921;53.614;9.882;2023-02-01T03:54:30;62.42;;;31.88;;
21519;SDS011;10921;53.614;9.882;2023-02-01T03:56:58;51.80;;;30.75;;
21519;SDS011;10921;53.614;9.882;2023-02-01T03:59:29;48.90;;;30.92;;
21519;SDS011;10921;53.614;9.882;2023-02-01T04:01:56;60.67;;;32.40;;
21519;SDS011;10921;53.614;9.882;2023-02-01T04:04:22;49.47;;;30.73;;
21519;SDS011;10921;53.614;9.882;2023-02-01T04:06:49;56.35;;;31.35;;
21519;SDS011;10921;53.614;9.882;2023-02-01T04:09:17;51.30;;;31.40;;
21519;SDS011;10921;53.614;9.882;2023-02-01T04:11:43;78.40;;;31.20;;
21519;SDS011;10921;53.614;9.882;2023-02-01T04:14:10;63.17;;;31.83;;
21519;SDS011;10921;53.614;9.882;2023-02-01T04:16:36;70.85;;;32.88;;
21519;SDS011;10921;53.614;9.882;2023-02-01T04:19:03;57.28;;;29.48;;
21519;SDS011;10921;53.614;9.882;2023-02-01T04:21:30;66.68;;;30.30;;
21519;SDS011;10921;53.614;9.882;2023-02-01T04:23:56;58.72;;;30.58;;
21519;SDS011;10921;53.614;9.882;2023-02-01T04:26:25;78.05;;;31.25;;
21519;SDS011;10921;53.614;9.882;2023-02-01T04:28:52;55.88;;;31.83;;
21519;SDS011;10921;53.614;9.882;2023-02-01T04:31:19;61.35;;;30.70;;
21519;SDS011;10921;53.614;9.882;2023-02-01T04:33:52;62.85;;;31.20;;
21519;SDS011;10921;53.614;9.882;2023-02-01T04:36:19;50.10;;;30.38;;
21519;SDS011;10921;53.614;9.882;2023-02-01T04:38:51;50.20;;;30.63;;
21519;SDS011;10921;53.614;9.882;2023-02-01T04:41:18;51.95;;;30.63;;
21519;SDS011;10921;53.614;9.882;2023-02-01T04:43:46;52.38;;;29.80;;
21519;SDS011;10921;53.614;9.882;2023-02-01T04:46:13;47.22;;;30.15;;
21519;SDS011;10921;53.614;9.882;2023-02-01T04:48:40;46.67;;;30.67;;
21519;SDS011;10921;53.614;9.882;2023-02-01T04:51:07;48.92;;;29.30;;
21519;SDS011;10921;53.614;9.882;2023-02-01T04:53:34;52.13;;;31.35;;
21519;SDS011;10921;53.614;9.882;2023-02-01T04:56:02;45.85;;;31.00;;
21519;SDS011;10921;53.614;9.882;2023-02-01T04:58:29;45.13;;;29.63;;
21519;SDS011;10921;53.614;9.882;2023-02-01T05:00:55;41.75;;;30.05;;
21519;SDS011;10921;53.614;9.882;2023-02-01T05:03:22;34.38;;;29.20;;
21519;SDS011;10921;53.614;9.882;2023-02-01T05:05:49;38.42;;;29.05;;
21519;SDS011;10921;53.614;9.882;2023-02-01T05:08:15;31.65;;;28.42;;
21519;SDS011;10921;53.614;9.882;2023-02-01T05:10:42;31.30;;;28.15;;
21519;SDS011;10921;53.614;9.882;2023-02-01T05:13:08;30.40;;;27.55;;
21519;SDS011;10921;53.614;9.882;2023-02-01T05:15:54;31.83;;;28.52;;
21519;SDS011;10921;53.614;9.882;2023-02-01T05:18:21;30.33;;;27.63;;
21519;SDS011;10921;53.614;9.882;2023-02-01T05:20:47;31.02;;;28.20;;
21519;SDS011;10921;53.614;9.882;2023-02-01T05:23:14;29.50;;;26.98;;
21519;SDS011;10921;53.614;9.882;2023-02-01T05:25:40;29.95;;;27.23;;
21519;SDS011;10921;53.614;9.882;2023-02-01T05:28:07;30.05;;;27.55;;
21519;SDS011;10921;53.614;9.882;2023-02-01T05:30:33;30.35;;;27.85;;
21519;SDS011;10921;53.614;9.882;2023-02-01T05:33:01;31.27;;;28.48;;
21519;SDS011;10921;53.614;9.882;2023-02-01T05:35:28;31.85;;;29.02;;
21519;SDS011;10921;53.614;9.882;2023-02-01T05:37:55;28.15;;;25.90;;
21519;SDS011;10921;53.614;9.882;2023-02-01T05:40:21;29.65;;;26.70;;
21519;SDS011;10921;53.614;9.882;2023-02-01T05:42:48;29.08;;;26.30;;
21519;SDS011;10921;53.614;9.882;2023-02-01T05:45:15;28.33;;;25.67;;
21519;SDS011;10921;53.614;9.882;2023-02-01T05:47:41;28.40;;;25.85;;
21519;SDS011;10921;53.614;9.882;2023-02-01T05:50:08;28.60;;;26.00;;
21519;SDS011;10921;53.614;9.882;2023-02-01T05:52:35;27.52;;;25.20;;
21519;SDS011;10921;53.614;9.882;2023-02-01T05:55:01;29.88;;;27.38;;
21519;SDS011;10921;53.614;9.882;2023-02-01T05:57:28;30.48;;;27.65;;
21519;SDS011;10921;53.614;9.882;2023-02-01T05:59:54;30.33;;;27.38;;
21519;SDS011;10921;53.614;9.882;2023-02-01T06:02:21;31.33;;;28.30;;
21519;SDS011;10921;53.614;9.882;2023-02-01T06:04:48;30.40;;;27.80;;
21519;SDS011;10921;53.614;9.882;2023-02-01T06:07:14;31.98;;;28.95;;
21519;SDS011;10921;53.614;9.882;2023-02-01T06:09:41;31.75;;;28.67;;
21519;SDS011;10921;53.614;9.882;2023-02-01T06:12:07;31.35;;;28.42;;
21519;SDS011;10921;53.614;9.882;2023-02-01T06:14:34;34.22;;;29.58;;
21519;SDS011;10921;53.614;9.882;2023-02-01T06:17:00;32.28;;;28.88;;
21519;SDS011;10921;53.614;9.882;2023-02-01T06:19:27;32.22;;;29.00;;
21519;SDS011;10921;53.614;9.882;2023-02-01T06:21:53;37.28;;;29.58;;
21519;SDS011;10921;53.614;9.882;2023-02-01T06:24:20;32.42;;;29.00;;
21519;SDS011;10921;53.614;9.882;2023-02-01T06:26:46;37.55;;;29.08;;
21519;SDS011;10921;53.614;9.882;2023-02-01T06:29:13;38.85;;;29.23;;
21519;SDS011;10921;53.614;9.882;2023-02-01T06:31:39;39.75;;;29.52;;
21519;SDS011;10921;53.614;9.882;2023-02-01T06:34:06;41.35;;;29.83;;
21519;SDS011;10921;53.614;9.882;2023-02-01T06:36:33;44.72;;;30.38;;
21519;SDS011;10921;53.614;9.882;2023-02-01T06:38:59;37.50;;;30.63;;
21519;SDS011;10921;53.614;9.882;2023-02-01T06:41:26;46.95;;;29.58;;
21519;SDS011;10921;53.614;9.882;2023-02-01T06:43:54;41.53;;;30.35;;
21519;SDS011;10921;53.614;9.882;2023-02-01T06:46:21;46.42;;;30.08;;
21519;SDS011;10921;53.614;9.882;2023-02-01T06:48:47;43.90;;;29.92;;
21519;SDS011;10921;53.614;9.882;2023-02-01T06:51:19;51.03;;;30.95;;
21519;SDS011;10921;53.614;9.882;2023-02-01T06:53:50;49.03;;;31.50;;
21519;SDS011;10921;53.614;9.882;2023-02-01T06:56:17;58.90;;;32.55;;
21519;SDS011;10921;53.614;9.882;2023-02-01T06:58:44;54.97;;;31.73;;
21519;SDS011;10921;53.614;9.882;2023-02-01T07:01:10;58.70;;;31.90;;
21519;SDS011;10921;53.614;9.882;2023-02-01T07:03:37;65.32;;;31.85;;
21519;SDS011;10921;53.614;9.882;2023-02-01T07:06:04;54.65;;;32.90;;
21519;SDS011;10921;53.614;9.882;2023-02-01T07:08:33;54.88;;;32.33;;
21519;SDS011;10921;53.614;9.882;2023-02-01T07:11:05;56.28;;;31.20;;
21519;SDS011;10921;53.614;9.882;2023-02-01T07:13:33;54.70;;;31.50;;
21519;SDS011;10921;53.614;9.882;2023-02-01T07:16:00;45.45;;;29.98;;
21519;SDS011;10921;53.614;9.882;2023-02-01T07:18:29;48.47;;;32.20;;
21519;SDS011;10921;53.614;9.882;2023-02-01T07:20:57;56.20;;;30.98;;
21519;SDS011;10921;53.614;9.882;2023-02-01T07:23:24;58.90;;;32.53;;
21519;SDS011;10921;53.614;9.882;2023-02-01T07:25:58;69.32;;;32.88;;
21519;SDS011;10921;53.614;9.882;2023-02-01T07:28:26;60.65;;;32.30;;
21519;SDS011;10921;53.614;9.882;2023-02-01T07:30:55;56.30;;;32.72;;
21519;SDS011;10921;53.614;9.882;2023-02-01T07:33:22;61.22;;;33.15;;
21519;SDS011;10921;53.614;9.882;2023-02-01T07:35:53;64.50;;;31.98;;
21519;SDS011;10921;53.614;9.882;2023-02-01T07:38:19;60.97;;;32.40;;
21519;SDS011;10921;53.614;9.882;2023-02-01T07:40:47;68.82;;;33.38;;
21519;SDS011;10921;53.614;9.882;2023-02-01T07:43:14;69.97;;;34.17;;
21519;SDS011;10921;53.614;9.882;2023-02-01T07:45:40;69.32;;;33.50;;
21519;SDS011;10921;53.614;9.882;2023-02-01T07:48:07;70.28;;;34.10;;
21519;SDS011;10921;53.614;9.882;2023-02-01T07:50:33;78.72;;;34.90;;
21519;SDS011;10921;53.614;9.882;2023-02-01T07:53:00;74.90;;;35.05;;
21519;SDS011;10921;53.614;9.882;2023-02-01T07:55:27;82.15;;;34.50;;
21519;SDS011;10921;53.614;9.882;2023-02-01T07:57:56;93.15;;;36.20;;
21519;SDS011;10921;53.614;9.882;2023-02-01T08:00:24;89.22;;;35.17;;
21519;SDS011;10921;53.614;9.882;2023-02-01T08:03:10;75.32;;;36.20;;
21519;SDS011;10921;53.614;9.882;2023-02-01T08:05:36;72.25;;;34.15;;
21519;SDS011;10921;53.614;9.882;2023-02-01T08:08:03;90.45;;;36.28;;
21519;SDS011;10921;53.614;9.882;2023-02-01T08:10:30;79.93;;;34.97;;
21519;SDS011;10921;53.614;9.882;2023-02-01T08:12:59;86.80;;;35.08;;
21519;SDS011;10921;53.614;9.882;2023-02-01T08:17:53;72.57;;;34.22;;
21519;SDS011;10921;53.614;9.882;2023-02-01T08:20:24;81.13;;;33.83;;
21519;SDS011;10921;53.614;9.882;2023-02-01T08:22:54;80.80;;;36.05;;
21519;SDS011;10921;53.614;9.882;2023-02-01T08:25:21;85.78;;;34.22;;
21519;SDS011;10921;53.614;9.882;2023-02-01T08:27:49;76.35;;;34.88;;
21519;SDS011;10921;53.614;9.882;2023-02-01T08:30:16;68.47;;;35.03;;
21519;SDS011;10921;53.614;9.882;2023-02-01T08:32:43;77.13;;;35.13;;
21519;SDS011;10921;53.614;9.882;2023-02-01T08:35:09;60.08;;;32.63;;
21519;SDS011;10921;53.614;9.882;2023-02-01T08:37:36;53.40;;;33.22;;
21519;SDS011;10921;53.614;9.882;2023-02-01T08:40:03;63.03;;;32.45;;
21519;SDS011;10921;53.614;9.882;2023-02-01T08:42:30;57.72;;;32.67;;
21519;SDS011;10921;53.614;9.882;2023-02-01T08:45:15;60.20;;;31.15;;
21519;SDS011;10921;53.614;9.882;2023-02-01T08:47:42;54.08;;;32.47;;
21519;SDS011;10921;53.614;9.882;2023-02-01T08:50:09;51.30;;;31.92;;
21519;SDS011;10921;53.614;9.882;2023-02-01T08:52:36;55.40;;;32.13;;
21519;SDS011;10921;53.614;9.882;2023-02-01T08:55:03;48.67;;;31.45;;
21519;SDS011;10921;53.614;9.882;2023-02-01T08:57:31;56.78;;;32.72;;
21519;SDS011;10921;53.614;9.882;2023-02-01T08:59:57;58.15;;;32.47;;
21519;SDS011;10921;53.614;9.882;2023-02-01T09:02:24;70.47;;;33.15;;
21519;SDS011;10921;53.614;9.882;2023-02-01T09:04:50;76.88;;;34.83;;
21519;SDS011;10921;53.614;9.882;2023-02-01T09:07:17;63.45;;;33.15;;
21519;SDS011;10921;53.614;9.882;2023-02-01T09:09:44;71.70;;;34.38;;
21519;SDS011;10921;53.614;9.882;2023-02-01T09:12:11;73.63;;;33.38;;
21519;SDS011;10921;53.614;9.882;2023-02-01T09:14:38;73.70;;;34.47;;
21519;SDS011;10921;53.614;9.882;2023-02-01T09:17:04;69.30;;;34.25;;
21519;SDS011;10921;53.614;9.882;2023-02-01T09:19:31;77.90;;;32.75;;
21519;SDS011;10921;53.614;9.882;2023-02-01T09:21:58;63.80;;;32.95;;
21519;SDS011;10921;53.614;9.882;2023-02-01T09:24:24;58.97;;;32.00;;
21519;SDS011;10921;53.614;9.882;2023-02-01T09:26:51;58.67;;;32.40;;
21519;SDS011;10921;53.614;9.882;2023-02-01T09:29:18;87.88;;;35.10;;
21519;SDS011;10921;53.614;9.882;2023-02-01T09:31:45;66.65;;;34.03;;
21519;SDS011;10921;53.614;9.882;2023-02-01T09:34:28;71.20;;;32.60;;
21519;SDS011;10921;53.614;9.882;2023-02-01T09:36:54;56.85;;;32.50;;
21519;SDS011;10921;53.614;9.882;2023-02-01T09:39:21;56.13;;;31.73;;
21519;SDS011;10921;53.614;9.882;2023-02-01T09:47:19;61.08;;;30.02;;
21519;SDS011;10921;53.614;9.882;2023-02-01T09:49:50;56.08;;;28.30;;
21519;SDS011;10921;53.614;9.882;2023-02-01T09:52:32;60.13;;;27.95;;
21519;SDS011;10921;53.614;9.882;2023-02-01T09:55:07;60.33;;;25.35;;
21519;SDS011;10921;53.614;9.882;2023-02-01T10:00:39;54.33;;;23.02;;
21519;SDS011;10921;53.614;9.882;2023-02-01T10:03:11;50.20;;;21.67;;
21519;SDS011;10921;53.614;9.882;2023-02-01T10:16:51;51.25;;;16.95;;
21519;SDS011;10921;53.614;9.882;2023-02-01T10:19:33;52.78;;;19.38;;
21519;SDS011;10921;53.614;9.882;2023-02-01T10:22:06;40.17;;;17.55;;
21519;SDS011;10921;53.614;9.882;2023-02-01T10:29:36;53.58;;;21.30;;
21519;SDS011;10921;53.614;9.882;2023-02-01T10:32:38;56.78;;;29.67;;
21519;SDS011;10921;53.614;9.882;2023-02-01T10:34:59;49.28;;;29.58;;
21519;SDS011;10921;53.614;9.882;2023-02-01T10:37:32;68.43;;;33.05;;
21519;SDS011;10921;53.614;9.882;2023-02-01T10:42:38;66.35;;;34.05;;
21519;SDS011;10921;53.614;9.882;2023-02-01T10:45:06;66.05;;;33.58;;
21519;SDS011;10921;53.614;9.882;2023-02-01T10:47:33;65.78;;;33.22;;
21519;SDS011;10921;53.614;9.882;2023-02-01T10:52:50;58.22;;;33.30;;
21519;SDS011;10921;53.614;9.882;2023-02-01T10:55:37;74.55;;;34.92;;
21519;SDS011;10921;53.614;9.882;2023-02-01T10:58:10;55.00;;;33.05;;
21519;SDS011;10921;53.614;9.882;2023-02-01T11:00:46;55.25;;;33.67;;
21519;SDS011;10921;53.614;9.882;2023-02-01T11:06:19;60.47;;;33.80;;
21519;SDS011;10921;53.614;9.882;2023-02-01T11:08:48;67.47;;;32.95;;
21519;SDS011;10921;53.614;9.882;2023-02-01T11:11:17;67.57;;;33.88;;
21519;SDS011;10921;53.614;9.882;2023-02-01T11:13:45;62.55;;;33.35;;
21519;SDS011;10921;53.614;9.882;2023-02-01T11:16:19;57.28;;;32.80;;
21519;SDS011;10921;53.614;9.882;2023-02-01T11:18:45;60.92;;;33.05;;
21519;SDS011;10921;53.614;9.882;2023-02-01T11:21:21;63.38;;;33.75;;
21519;SDS011;10921;53.614;9.882;2023-02-01T11:23:48;69.28;;;33.70;;
21519;SDS011;10921;53.614;9.882;2023-02-01T11:28:54;72.47;;;34.38;;
21519;SDS011;10921;53.614;9.882;2023-02-01T11:31:24;60.85;;;33.97;;
21519;SDS011;10921;53.614;9.882;2023-02-01T11:33:55;62.28;;;32.33;;
21519;SDS011;10921;53.614;9.882;2023-02-01T11:36:26;61.70;;;33.85;;
21519;SDS011;10921;53.614;9.882;2023-02-01T11:44:21;65.78;;;34.60;;
21519;SDS011;10921;53.614;9.882;2023-02-01T11:46:52;69.00;;;33.40;;
21519;SDS011;10921;53.614;9.882;2023-02-01T11:51:56;49.13;;;30.70;;
21519;SDS011;10921;53.614;9.882;2023-02-01T12:05:50;44.33;;;29.00;;
21519;SDS011;10921;53.614;9.882;2023-02-01T12:08:53;48.50;;;30.15;;
21519;SDS011;10921;53.614;9.882;2023-02-01T12:11:31;43.20;;;30.48;;
21519;SDS011;10921;53.614;9.882;2023-02-01T12:19:34;51.13;;;32.22;;
21519;SDS011;10921;53.614;9.882;2023-02-01T12:22:30;47.75;;;30.38;;
21519;SDS011;10921;53.614;9.882;2023-02-01T12:24:58;40.55;;;30.85;;
21519;SDS011;10921;53.614;9.882;2023-02-01T12:27:50;37.03;;;29.75;;
21519;SDS011;10921;53.614;9.882;2023-02-01T12:41:45;27.17;;;24.83;;
21519;SDS011;10921;53.614;9.882;2023-02-01T12:49:36;27.63;;;25.52;;
21519;SDS011;10921;53.614;9.882;2023-02-01T12:52:14;28.27;;;26.05;;
21519;SDS011;10921;53.614;9.882;2023-02-01T12:54:50;29.02;;;26.52;;
21519;SDS011;10921;53.614;9.882;2023-02-01T12:57:25;29.08;;;26.77;;
21519;SDS011;10921;53.614;9.882;2023-02-01T13:05:22;29.55;;;27.15;;
21519;SDS011;10921;53.614;9.882;2023-02-01T13:08:00;31.48;;;28.60;;
21519;SDS011;10921;53.614;9.882;2023-02-01T13:16:11;31.23;;;28.35;;
21519;SDS011;10921;53.614;9.882;2023-02-01T13:18:50;30.65;;;28.02;;
21519;SDS011;10921;53.614;9.882;2023-02-01T13:21:27;30.10;;;27.77;;
21519;SDS011;10921;53.614;9.882;2023-02-01T13:23:59;28.90;;;26.70;;
21519;SDS011;10921;53.614;9.882;2023-02-01T13:26:25;28.77;;;26.42;;
21519;SDS011;10921;53.614;9.882;2023-02-01T13:28:53;25.63;;;23.70;;
21519;SDS011;10921;53.614;9.882;2023-02-01T13:31:38;23.75;;;21.90;;
21519;SDS011;10921;53.614;9.882;2023-02-01T13:37:20;20.48;;;18.70;;
21519;SDS011;10921;53.614;9.882;2023-02-01T13:45:19;18.63;;;16.80;;
21519;SDS011;10921;53.614;9.882;2023-02-01T13:47:50;18.23;;;16.52;;
21519;SDS011;10921;53.614;9.882;2023-02-01T13:50:21;18.00;;;16.10;;
21519;SDS011;10921;53.614;9.882;2023-02-01T13:53:32;17.10;;;15.48;;
21519;SDS011;10921;53.614;9.882;2023-02-01T13:55:41;17.08;;;14.85;;
21519;SDS011;10921;53.614;9.882;2023-02-01T14:03:59;14.95;;;13.55;;
21519;SDS011;10921;53.614;9.882;2023-02-01T14:17:29;19.95;;;11.45;;
21519;SDS011;10921;53.614;9.882;2023-02-01T14:19:28;23.88;;;11.93;;
21519;SDS011;10921;53.614;9.882;2023-02-01T14:24:32;24.10;;;14.43;;
21519;SDS011;10921;53.614;9.882;2023-02-01T14:27:01;28.58;;;22.73;;
21519;SDS011;10921;53.614;9.882;2023-02-01T14:29:43;37.92;;;28.42;;
21519;SDS011;10921;53.614;9.882;2023-02-01T14:32:24;30.67;;;27.48;;
21519;SDS011;10921;53.614;9.882;2023-02-01T14:34:57;34.63;;;26.95;;
21519;SDS011;10921;53.614;9.882;2023-02-01T14:42:51;36.45;;;27.80;;
21519;SDS011;10921;53.614;9.882;2023-02-01T14:47:53;31.30;;;27.35;;
21519;SDS011;10921;53.614;9.882;2023-02-01T14:50:22;36.38;;;28.15;;
21519;SDS011;10921;53.614;9.882;2023-02-01T14:55:43;35.67;;;28.45;;
21519;SDS011;10921;53.614;9.882;2023-02-01T15:01:02;35.00;;;29.50;;
21519;SDS011;10921;53.614;9.882;2023-02-01T15:03:47;42.95;;;29.40;;
21519;SDS011;10921;53.614;9.882;2023-02-01T15:06:30;37.40;;;28.40;;
21519;SDS011;10921;53.614;9.882;2023-02-01T15:09:08;47.05;;;29.20;;
21519;SDS011;10921;53.614;9.882;2023-02-01T15:14:39;47.50;;;26.15;;
21519;SDS011;10921;53.614;9.882;2023-02-01T15:17:18;42.83;;;24.85;;
21519;SDS011;10921;53.614;9.882;2023-02-01T15:20:00;37.60;;;24.55;;
21519;SDS011;10921;53.614;9.882;2023-02-01T15:22:34;34.30;;;24.35;;
21519;SDS011;10921;53.614;9.882;2023-02-01T15:25:01;36.28;;;23.90;;
21519;SDS011;10921;53.614;9.882;2023-02-01T15:27:28;33.58;;;23.40;;
21519;SDS011;10921;53.614;9.882;2023-02-01T15:30:04;33.58;;;23.70;;
21519;SDS011;10921;53.614;9.882;2023-02-01T15:32:34;29.00;;;22.08;;
21519;SDS011;10921;53.614;9.882;2023-02-01T15:35:04;31.70;;;22.65;;
21519;SDS011;10921;53.614;9.882;2023-02-01T15:37:31;31.20;;;22.77;;
21519;SDS011;10921;53.614;9.882;2023-02-01T15:42:52;28.35;;;24.70;;
21519;SDS011;10921;53.614;9.882;2023-02-01T15:45:22;39.50;;;27.52;;
21519;SDS011;10921;53.614;9.882;2023-02-01T15:47:53;47.38;;;31.13;;
21519;SDS011;10921;53.614;9.882;2023-02-01T15:50:21;50.35;;;30.75;;
21519;SDS011;10921;53.614;9.882;2023-02-01T15:52:52;35.75;;;30.27;;
21519;SDS011;10921;53.614;9.882;2023-02-01T15:55:21;40.53;;;31.05;;
21519;SDS011;10921;53.614;9.882;2023-02-01T15:57:49;49.13;;;30.73;;
21519;SDS011;10921;53.614;9.882;2023-02-01T16:00:24;48.88;;;31.27;;
21519;SDS011;10921;53.614;9.882;2023-02-01T16:03:01;56.08;;;32.25;;
21519;SDS011;10921;53.614;9.882;2023-02-01T16:05:35;57.83;;;32.03;;
21519;SDS011;10921;53.614;9.882;2023-02-01T16:08:05;49.20;;;32.80;;
21519;SDS011;10921;53.614;9.882;2023-02-01T16:10:46;60.72;;;33.45;;
21519;SDS011;10921;53.614;9.882;2023-02-01T16:13:15;63.78;;;33.10;;
21519;SDS011;10921;53.614;9.882;2023-02-01T16:15:43;49.00;;;32.17;;
21519;SDS011;10921;53.614;9.882;2023-02-01T16:18:11;63.53;;;36.45;;
21519;SDS011;10921;53.614;9.882;2023-02-01T16:20:38;58.53;;;35.15;;
21519;SDS011;10921;53.614;9.882;2023-02-01T16:23:06;61.90;;;33.20;;
21519;SDS011;10921;53.614;9.882;2023-02-01T16:25:34;55.17;;;32.33;;
21519;SDS011;10921;53.614;9.882;2023-02-01T16:28:02;59.83;;;33.40;;
21519;SDS011;10921;53.614;9.882;2023-02-01T16:30:29;58.08;;;33.13;;
21519;SDS011;10921;53.614;9.882;2023-02-01T16:32:56;49.97;;;31.30;;
21519;SDS011;10921;53.614;9.882;2023-02-01T16:35:33;53.50;;;31.10;;
21519;SDS011;10921;53.614;9.882;2023-02-01T16:38:11;69.57;;;33.40;;
21519;SDS011;10921;53.614;9.882;2023-02-01T16:40:39;66.00;;;31.67;;
21519;SDS011;10921;53.614;9.882;2023-02-01T16:45:48;59.45;;;33.88;;
21519;SDS011;10921;53.614;9.882;2023-02-01T16:48:26;87.28;;;48.60;;
21519;SDS011;10921;53.614;9.882;2023-02-01T16:50:55;69.53;;;36.60;;
21519;SDS011;10921;53.614;9.882;2023-02-01T16:53:24;70.35;;;35.60;;
21519;SDS011;10921;53.614;9.882;2023-02-01T16:55:53;60.80;;;32.22;;
21519;SDS011;10921;53.614;9.882;2023-02-01T16:58:20;79.07;;;36.42;;
21519;SDS011;10921;53.614;9.882;2023-02-01T17:00:49;69.50;;;37.63;;
21519;SDS011;10921;53.614;9.882;2023-02-01T17:03:17;69.72;;;35.10;;
21519;SDS011;10921;53.614;9.882;2023-02-01T17:05:49;73.43;;;30.77;;
21519;SDS011;10921;53.614;9.882;2023-02-01T17:08:20;57.72;;;29.30;;
21519;SDS011;10921;53.614;9.882;2023-02-01T17:10:52;65.88;;;27.58;;
21519;SDS011;10921;53.614;9.882;2023-02-01T17:13:19;68.18;;;25.92;;
21519;SDS011;10921;53.614;9.882;2023-02-01T17:15:50;98.13;;;41.28;;
21519;SDS011;10921;53.614;9.882;2023-02-01T17:18:22;59.88;;;25.15;;
21519;SDS011;10921;53.614;9.882;2023-02-01T17:20:51;59.22;;;21.85;;
21519;SDS011;10921;53.614;9.882;2023-02-01T17:23:18;53.65;;;23.23;;
21519;SDS011;10921;53.614;9.882;2023-02-01T17:25:45;56.65;;;22.15;;
21519;SDS011;10921;53.614;9.882;2023-02-01T17:28:13;60.35;;;22.13;;
21519;SDS011;10921;53.614;9.882;2023-02-01T17:30:40;58.25;;;22.63;;